createdAt,value
2024-05-09T00:02:46.785Z,101730.61
2024-05-09T00:07:52.811Z,101731.55
2024-05-09T00:12:58.834Z,101732.82
2024-05-09T00:18:06.635Z,101736.48
2024-05-09T00:23:14.068Z,101732.86
2024-05-09T00:28:20.230Z,101736.45
2024-05-09T00:33:26.594Z,101741.30
2024-05-09T00:38:33.283Z,101741.40
2024-05-09T00:43:39.515Z,101741.86
2024-05-09T00:48:45.666Z,101741.76
2024-05-09T00:53:51.660Z,101742.04
2024-05-09T00:58:57.557Z,101741.37
2024-05-09T01:04:03.750Z,101745.73
2024-05-09T01:09:09.979Z,101746.86
2024-05-09T01:14:16.122Z,101744.80
2024-05-09T01:19:25.800Z,101742.92
2024-05-09T01:24:32.216Z,101743.52
2024-05-09T01:29:38.137Z,101752.85
2024-05-09T01:34:44.332Z,101751.63
2024-05-09T01:39:50.614Z,101758.22
2024-05-09T01:44:56.860Z,101765.33
2024-05-09T01:50:03.538Z,101768.95
2024-05-09T01:55:09.710Z,101767.75
2024-05-09T02:00:22.255Z,101765.27
2024-05-09T02:05:35.975Z,101765.77
2024-05-09T02:10:42.698Z,101766.83
2024-05-09T02:15:52.114Z,101759.08
2024-05-09T02:20:58.157Z,101764.55
2024-05-09T02:26:04.545Z,101766.20
2024-05-09T02:31:13.635Z,101765.60
2024-05-09T02:36:19.879Z,101762.30
2024-05-09T02:41:26.836Z,101762.75
2024-05-09T02:46:35.137Z,101763.23
2024-05-09T02:51:41.053Z,101762.88
2024-05-09T02:56:47.881Z,101763.39
2024-05-09T03:01:53.954Z,101762.05
2024-05-09T03:07:00.075Z,101766.17
2024-05-09T03:12:08.217Z,101770.04
2024-05-09T03:17:14.573Z,101771.59
2024-05-09T03:22:20.999Z,101772.96
2024-05-09T03:27:27.802Z,101772.39
2024-05-09T03:32:34.352Z,101771.73
2024-05-09T03:37:40.557Z,101771.31
2024-05-09T03:42:46.581Z,101770.67
2024-05-09T03:47:52.920Z,101771.49
2024-05-09T03:52:59.086Z,101776.41
2024-05-09T03:58:07.608Z,101773.73
2024-05-09T04:03:13.859Z,101770.99
2024-05-09T04:08:20.584Z,101776.95
2024-05-09T04:13:26.969Z,101776.25
2024-05-09T04:18:33.864Z,101763.30
2024-05-09T04:23:40.160Z,101753.70
2024-05-09T04:28:46.665Z,101751.54
2024-05-09T04:33:53.224Z,101741.80
2024-05-09T04:39:00.061Z,101730.95
2024-05-09T04:44:07.482Z,101728.23
2024-05-09T04:49:13.902Z,101722.64
2024-05-09T04:59:29.734Z,101719.48
2024-05-09T05:04:36.095Z,101714.36
2024-05-09T05:09:42.216Z,101713.91
2024-05-09T05:14:48.047Z,101717.09
2024-05-09T05:19:54.209Z,101715.56
2024-05-09T05:25:00.648Z,101710.04
2024-05-09T05:30:14.658Z,101715.30
2024-05-09T05:35:24.084Z,101712.63
2024-05-09T05:40:36.281Z,101707.09
2024-05-09T05:45:44.725Z,101710.38
2024-05-09T05:50:50.686Z,101708.13
2024-05-09T05:55:56.944Z,101705.26
2024-05-09T06:01:03.044Z,101707.06
2024-05-09T06:06:09.119Z,101709.16
2024-05-09T06:11:15.503Z,101709.00
2024-05-09T06:16:21.768Z,101694.95
2024-05-09T06:21:27.786Z,101695.74
2024-05-09T06:26:34.298Z,101698.30
2024-05-09T06:31:42.014Z,101696.17
2024-05-09T06:36:48.095Z,101698.23
2024-05-09T06:41:54.189Z,101699.08
2024-05-09T06:47:00.666Z,101691.44
2024-05-09T06:52:06.290Z,101689.73
2024-05-09T06:57:12.575Z,101685.83
2024-05-09T07:02:18.722Z,101688.66
2024-05-09T07:07:25.264Z,101683.23
2024-05-09T07:12:32.514Z,101680.45
2024-05-09T07:17:39.219Z,101682.92
2024-05-09T07:22:45.681Z,101679.55
2024-05-09T07:27:52.001Z,101678.43
2024-05-09T07:32:58.913Z,101668.71
2024-05-09T07:38:06.251Z,101665.34
2024-05-09T07:43:12.856Z,101661.52
2024-05-09T07:53:40.558Z,101658.95
2024-05-09T07:58:51.775Z,101665.14
2024-05-09T08:03:58.569Z,101659.30
2024-05-09T08:09:08.250Z,101658.35
2024-05-09T08:14:19.952Z,101658.06
2024-05-09T08:19:26.374Z,101658.70
2024-05-09T08:24:32.653Z,101654.44
2024-05-09T08:29:38.999Z,101652.45
2024-05-09T08:35:24.356Z,101649.80
2024-05-09T08:40:34.572Z,101646.05
2024-05-09T08:45:44.033Z,101646.10
2024-05-09T08:50:53.108Z,101638.00
2024-05-09T08:56:04.064Z,101640.90
2024-05-09T09:01:11.099Z,101634.46
2024-05-09T09:06:18.063Z,101635.86
2024-05-09T09:11:24.261Z,101627.52
2024-05-09T09:16:36.776Z,101626.39
2024-05-09T09:21:42.972Z,101618.02
2024-05-09T09:26:49.061Z,101618.08
2024-05-09T09:32:01.562Z,101616.43
2024-05-09T09:37:11.663Z,101617.09
2024-05-09T09:42:18.204Z,101616.48
2024-05-09T09:47:26.266Z,101608.65
2024-05-09T09:52:32.656Z,101607.36
2024-05-09T09:57:40.078Z,101601.42
2024-05-09T10:02:49.410Z,101603.29
2024-05-09T10:07:56.909Z,101602.20
2024-05-09T10:13:06.816Z,101597.45
2024-05-09T10:18:13.456Z,101599.60
2024-05-09T10:23:27.321Z,101597.34
2024-05-09T10:28:34.920Z,101594.83
2024-05-09T10:33:46.121Z,101592.61
2024-05-09T10:38:53.639Z,101583.72
2024-05-09T10:43:59.720Z,101582.13
2024-05-09T10:49:07.999Z,101580.01
2024-05-09T10:54:14.579Z,101576.83
2024-05-09T10:59:20.756Z,101574.74
2024-05-09T11:04:27.499Z,101562.23
2024-05-09T11:09:34.059Z,101560.61
2024-05-09T11:14:40.183Z,101555.54
2024-05-09T11:19:46.450Z,101545.61
2024-05-09T11:24:54.671Z,101546.95
2024-05-09T11:30:01.548Z,101538.40
2024-05-09T11:35:08.143Z,101537.27
2024-05-09T11:40:21.350Z,101533.97
2024-05-09T11:45:32.451Z,101530.91
2024-05-09T11:50:38.663Z,101530.92
2024-05-09T11:55:44.616Z,101523.64
2024-05-09T12:00:50.991Z,101520.25
2024-05-09T12:05:58.814Z,101511.16
2024-05-09T12:11:05.650Z,101507.59
2024-05-09T12:16:12.338Z,101499.83
2024-05-09T12:21:18.872Z,101498.99
2024-05-09T12:26:25.387Z,101494.44
2024-05-09T12:31:32.317Z,101493.20
2024-05-09T12:36:38.454Z,101486.53
2024-05-09T12:41:44.946Z,101489.32
2024-05-09T12:46:50.845Z,101486.84
2024-05-09T12:51:57.076Z,101481.70
2024-05-09T12:57:03.313Z,101481.23
2024-05-09T13:02:09.754Z,101477.36
2024-05-09T13:07:16.574Z,101474.56
2024-05-09T13:12:24.331Z,101465.03
2024-05-09T13:17:31.302Z,101463.63
2024-05-09T13:22:38.159Z,101460.16
2024-05-09T13:27:44.258Z,101452.54
2024-05-09T13:32:50.236Z,101449.40
2024-05-09T13:37:56.307Z,101441.78
2024-05-09T13:43:02.748Z,101438.54
2024-05-09T13:48:11.019Z,101436.61
2024-05-09T13:53:18.910Z,101431.69
2024-05-09T13:58:25.584Z,101425.79
2024-05-09T14:03:32.502Z,101421.52
2024-05-09T14:08:46.555Z,101414.98
2024-05-09T14:13:59.868Z,101411.81
2024-05-09T14:19:06.203Z,101411.87
2024-05-09T14:24:12.222Z,101404.16
2024-05-09T14:29:18.143Z,101398.65
2024-05-09T14:34:24.327Z,101394.15
2024-05-09T14:39:30.675Z,101388.73
2024-05-09T14:44:36.833Z,101385.98
2024-05-09T14:49:43.870Z,101375.19
2024-05-09T14:54:59.915Z,101371.69
2024-05-09T15:00:17.433Z,101368.43
2024-05-09T15:05:31.723Z,101357.46
2024-05-09T15:10:38.596Z,101357.48
2024-05-09T15:15:44.959Z,101356.50
2024-05-09T15:20:51.217Z,101351.19
2024-05-09T15:25:57.820Z,101352.00
2024-05-09T15:31:04.091Z,101351.90
2024-05-09T15:36:10.283Z,101343.98
2024-05-09T15:41:16.580Z,101341.63
2024-05-09T15:46:22.747Z,101338.39
2024-05-09T15:51:29.466Z,101332.67
2024-05-09T15:56:36.332Z,101325.27
2024-05-09T16:01:42.603Z,101322.61
2024-05-09T16:06:49.489Z,101319.71
2024-05-09T16:11:55.489Z,101318.67
2024-05-09T16:17:02.161Z,101312.29
2024-05-09T16:22:08.440Z,101310.55
2024-05-09T16:27:15.098Z,101306.52
2024-05-09T16:32:21.391Z,101311.83
2024-05-09T16:37:29.584Z,101304.02
2024-05-09T16:42:36.466Z,101304.71
2024-05-09T16:47:42.974Z,101299.79
2024-05-09T16:52:49.157Z,101299.27
2024-05-09T16:57:55.730Z,101301.59
2024-05-09T17:03:02.285Z,101305.36
2024-05-09T17:08:09.311Z,101308.30
2024-05-09T17:13:15.740Z,101306.49
2024-05-09T17:18:23.062Z,101308.63
2024-05-09T17:23:34.322Z,101310.10
2024-05-09T17:28:44.213Z,101309.58
2024-05-09T17:33:50.682Z,101310.42
2024-05-09T17:38:57.055Z,101310.93
2024-05-09T17:44:03.785Z,101305.80
2024-05-09T17:49:10.046Z,101308.52
2024-05-09T17:54:16.396Z,101315.13
2024-05-09T17:59:22.578Z,101317.45
2024-05-09T18:04:30.968Z,101318.27
2024-05-09T18:09:39.002Z,101321.08
2024-05-09T18:14:45.001Z,101320.82
2024-05-09T18:19:51.550Z,101328.20
2024-05-09T18:24:57.980Z,101338.16
2024-05-09T18:30:09.390Z,101344.96
2024-05-09T18:35:16.084Z,101358.06
2024-05-09T18:40:31.215Z,101358.20
2024-05-09T18:45:41.629Z,101363.42
2024-05-09T18:50:47.923Z,101364.48
2024-05-09T18:55:54.158Z,101364.02
2024-05-09T19:01:01.791Z,101367.15
2024-05-09T19:06:08.206Z,101368.54
2024-05-09T19:11:14.911Z,101366.80
2024-05-09T19:16:21.280Z,101376.74
2024-05-09T19:21:27.743Z,101370.63
2024-05-09T19:26:34.142Z,101368.34
2024-05-09T19:31:40.198Z,101375.89
2024-05-09T19:36:46.478Z,101378.08
2024-05-09T19:41:52.621Z,101375.92
2024-05-09T19:46:58.906Z,101378.41
2024-05-09T19:52:05.793Z,101374.90
2024-05-09T19:57:13.630Z,101373.80
2024-05-09T20:02:19.935Z,101373.66
2024-05-09T20:07:25.995Z,101377.14
2024-05-09T20:12:32.609Z,101388.67
2024-05-09T20:17:39.445Z,101389.48
2024-05-09T20:22:45.888Z,101393.72
2024-05-09T20:27:52.539Z,101395.29
2024-05-09T20:32:58.731Z,101396.50
2024-05-09T20:38:05.238Z,101395.89
2024-05-09T20:43:12.056Z,101392.81
2024-05-09T20:48:18.245Z,101387.61
2024-05-09T20:53:24.510Z,101388.13
2024-05-09T20:58:31.248Z,101386.27
2024-05-09T21:03:37.813Z,101389.16
2024-05-09T21:08:44.797Z,101394.75
2024-05-09T21:13:51.833Z,101390.45
2024-05-09T21:18:58.136Z,101391.99
2024-05-09T21:24:04.357Z,101389.33
2024-05-09T21:29:11.539Z,101387.30
2024-05-09T21:34:17.558Z,101393.65
2024-05-09T21:39:24.709Z,101387.73
2024-05-09T21:44:31.423Z,101385.88
2024-05-09T21:49:37.360Z,101383.70
2024-05-09T21:54:43.756Z,101390.16
2024-05-09T21:59:49.855Z,101391.96
2024-05-09T22:04:56.234Z,101387.33
2024-05-09T22:10:02.604Z,101389.34
2024-05-09T22:15:09.257Z,101387.52
2024-05-09T22:20:22.205Z,101381.85
2024-05-09T22:25:35.243Z,101382.71
2024-05-09T22:30:43.913Z,101379.08
2024-05-09T22:35:51.270Z,101377.78
2024-05-09T22:40:57.370Z,101372.69
2024-05-09T22:46:03.643Z,101374.41
2024-05-09T22:51:09.627Z,101379.05
2024-05-09T22:56:25.476Z,101384.45
2024-05-09T23:01:32.130Z,101383.77
2024-05-09T23:06:41.348Z,101380.80
2024-05-09T23:11:47.399Z,101380.33
2024-05-09T23:16:53.444Z,101374.60
2024-05-09T23:21:59.701Z,101371.50
2024-05-09T23:27:06.341Z,101368.24
2024-05-09T23:32:12.487Z,101366.95
2024-05-09T23:37:18.846Z,101364.47
2024-05-09T23:42:25.248Z,101360.52
2024-05-09T23:47:31.406Z,101358.25
2024-05-09T23:52:38.001Z,101353.10
2024-05-09T23:57:44.416Z,101346.81
